East Lempster, New Hampshire
Current Conditions -  °F | °C
As of 11:54 PM on Saturday 22 Nov 2014 (Local Time) from KVSF Reporting Station
Overcast Overcast  
Wind Chill: 41°   Ceiling: 2900
Heat Index: 41°   Visibility: 10mi
Dew Point: 29°   Wind: 3mph
Humidity: 62%   Direction: NA
Pressure: 30.01"   Gusts: NA
Location:  43.2136°N, 72.1592°W
Report Text: KVSF 230454Z AUTO VRB03KT 10SM BKN029 OVC070 05/M02 A3001 RMK AO2 SLP168 T00501017 400611100
Loading
Personal Weather Stations






























Interactive Weather Map New forecast layout! Learn more

10-Day Weather Forecast

Advertisements
Track Severe Weather on mobile